sensor_id;sensor_type;location;lat;lon;timestamp;temperature;humidity
42085;DHT22;27746;52.228;20.890;2023-02-28T00:01:12;-1.10;89.80
42085;DHT22;27746;52.228;20.890;2023-02-28T00:03:39;-1.10;90.00
42085;DHT22;27746;52.228;20.890;2023-02-28T00:06:07;-1.10;90.00
42085;DHT22;27746;52.228;20.890;2023-02-28T00:08:35;-1.10;90.00
42085;DHT22;27746;52.228;20.890;2023-02-28T00:11:02;-1.10;90.10
42085;DHT22;27746;52.228;20.890;2023-02-28T00:13:29;-1.10;90.10
42085;DHT22;27746;52.228;20.890;2023-02-28T00:16:02;-1.20;90.10
42085;DHT22;27746;52.228;20.890;2023-02-28T00:18:29;-1.10;90.50
42085;DHT22;27746;52.228;20.890;2023-02-28T00:20:56;-1.10;90.60
42085;DHT22;27746;52.228;20.890;2023-02-28T00:23:23;-1.20;90.80
42085;DHT22;27746;52.228;20.890;2023-02-28T00:25:50;-1.20;90.90
42085;DHT22;27746;52.228;20.890;2023-02-28T00:28:18;-1.10;91.40
42085;DHT22;27746;52.228;20.890;2023-02-28T00:30:45;-1.20;91.40
42085;DHT22;27746;52.228;20.890;2023-02-28T00:33:13;-1.20;91.20
42085;DHT22;27746;52.228;20.890;2023-02-28T00:35:40;-1.50;90.80
42085;DHT22;27746;52.228;20.890;2023-02-28T00:38:07;-1.10;91.00
42085;DHT22;27746;52.228;20.890;2023-02-28T00:40:34;-1.20;91.10
42085;DHT22;27746;52.228;20.890;2023-02-28T00:43:01;-1.20;91.00
42085;DHT22;27746;52.228;20.890;2023-02-28T00:45:28;-1.20;91.20
42085;DHT22;27746;52.228;20.890;2023-02-28T00:47:55;-1.30;91.70
42085;DHT22;27746;52.228;20.890;2023-02-28T00:50:23;-1.20;92.00
42085;DHT22;27746;52.228;20.890;2023-02-28T00:52:50;-1.30;91.50
42085;DHT22;27746;52.228;20.890;2023-02-28T00:55:17;-1.30;91.30
42085;DHT22;27746;52.228;20.890;2023-02-28T00:57:44;-1.30;91.60
42085;DHT22;27746;52.228;20.890;2023-02-28T01:00:12;-1.30;91.80
42085;DHT22;27746;52.228;20.890;2023-02-28T01:02:39;-1.30;91.70
42085;DHT22;27746;52.228;20.890;2023-02-28T01:05:06;-1.30;91.90
42085;DHT22;27746;52.228;20.890;2023-02-28T01:07:35;-1.30;91.60
42085;DHT22;27746;52.228;20.890;2023-02-28T01:10:02;-1.30;91.70
42085;DHT22;27746;52.228;20.890;2023-02-28T01:12:28;-1.30;91.90
42085;DHT22;27746;52.228;20.890;2023-02-28T01:14:55;-1.30;91.60
42085;DHT22;27746;52.228;20.890;2023-02-28T01:17:22;-1.30;91.30
42085;DHT22;27746;52.228;20.890;2023-02-28T01:19:49;-1.40;91.20
42085;DHT22;27746;52.228;20.890;2023-02-28T01:22:16;-1.40;91.00
42085;DHT22;27746;52.228;20.890;2023-02-28T01:24:44;-1.40;91.30
42085;DHT22;27746;52.228;20.890;2023-02-28T01:27:11;-1.40;92.30
42085;DHT22;27746;52.228;20.890;2023-02-28T01:29:38;-1.40;92.40
42085;DHT22;27746;52.228;20.890;2023-02-28T01:32:05;-1.40;92.40
42085;DHT22;27746;52.228;20.890;2023-02-28T01:34:32;-1.40;92.80
42085;DHT22;27746;52.228;20.890;2023-02-28T01:36:58;-1.30;92.60
42085;DHT22;27746;52.228;20.890;2023-02-28T01:39:25;-1.40;92.30
42085;DHT22;27746;52.228;20.890;2023-02-28T01:41:54;-1.40;93.10
42085;DHT22;27746;52.228;20.890;2023-02-28T01:44:55;-4.00;93.10
42085;DHT22;27746;52.228;20.890;2023-02-28T01:47:25;-1.50;93.90
42085;DHT22;27746;52.228;20.890;2023-02-28T01:49:53;-1.50;94.40
42085;DHT22;27746;52.228;20.890;2023-02-28T01:52:21;-1.50;95.00
42085;DHT22;27746;52.228;20.890;2023-02-28T01:54:52;-1.50;95.00
42085;DHT22;27746;52.228;20.890;2023-02-28T01:57:25;-1.50;95.40
42085;DHT22;27746;52.228;20.890;2023-02-28T01:59:56;-1.60;95.50
42085;DHT22;27746;52.228;20.890;2023-02-28T02:02:25;-1.50;95.70
42085;DHT22;27746;52.228;20.890;2023-02-28T02:04:55;-1.60;95.70
42085;DHT22;27746;52.228;20.890;2023-02-28T02:07:23;-1.60;95.80
42085;DHT22;27746;52.228;20.890;2023-02-28T02:09:59;-1.60;95.40
42085;DHT22;27746;52.228;20.890;2023-02-28T02:12:34;-1.60;95.20
42085;DHT22;27746;52.228;20.890;2023-02-28T02:15:11;-1.60;95.20
42085;DHT22;27746;52.228;20.890;2023-02-28T02:17:42;-1.60;95.20
42085;DHT22;27746;52.228;20.890;2023-02-28T02:23:36;-1.60;95.00
42085;DHT22;27746;52.228;20.890;2023-02-28T02:26:33;-1.60;95.20
42085;DHT22;27746;52.228;20.890;2023-02-28T02:29:30;-1.60;95.30
42085;DHT22;27746;52.228;20.890;2023-02-28T02:35:12;-1.60;96.20
42085;DHT22;27746;52.228;20.890;2023-02-28T02:37:45;-1.60;96.30
42085;DHT22;27746;52.228;20.890;2023-02-28T02:40:17;-1.60;96.10
42085;DHT22;27746;52.228;20.890;2023-02-28T02:42:50;-1.70;95.90
42085;DHT22;27746;52.228;20.890;2023-02-28T02:45:21;-1.60;96.10
42085;DHT22;27746;52.228;20.890;2023-02-28T02:47:49;-1.70;96.20
42085;DHT22;27746;52.228;20.890;2023-02-28T02:50:22;-1.60;96.40
42085;DHT22;27746;52.228;20.890;2023-02-28T02:52:53;-1.60;96.70
42085;DHT22;27746;52.228;20.890;2023-02-28T02:55:22;-1.60;96.80
42085;DHT22;27746;52.228;20.890;2023-02-28T02:57:53;-1.70;96.90
42085;DHT22;27746;52.228;20.890;2023-02-28T03:00:23;-1.70;96.60
42085;DHT22;27746;52.228;20.890;2023-02-28T03:02:54;-1.70;96.50
42085;DHT22;27746;52.228;20.890;2023-02-28T03:05:26;-1.70;96.70
42085;DHT22;27746;52.228;20.890;2023-02-28T03:07:53;-1.70;96.90
42085;DHT22;27746;52.228;20.890;2023-02-28T03:10:33;-1.70;96.90
42085;DHT22;27746;52.228;20.890;2023-02-28T03:13:18;-1.70;97.10
42085;DHT22;27746;52.228;20.890;2023-02-28T03:15:57;-1.70;97.20
42085;DHT22;27746;52.228;20.890;2023-02-28T03:18:32;-1.70;97.20
42085;DHT22;27746;52.228;20.890;2023-02-28T03:21:09;-1.70;97.30
42085;DHT22;27746;52.228;20.890;2023-02-28T03:23:42;-1.70;97.30
42085;DHT22;27746;52.228;20.890;2023-02-28T03:26:16;-1.70;97.50
42085;DHT22;27746;52.228;20.890;2023-02-28T03:28:52;-1.70;97.50
42085;DHT22;27746;52.228;20.890;2023-02-28T03:31:27;-1.70;97.50
42085;DHT22;27746;52.228;20.890;2023-02-28T03:34:01;-1.70;97.60
42085;DHT22;27746;52.228;20.890;2023-02-28T03:36:33;-1.70;97.60
42085;DHT22;27746;52.228;20.890;2023-02-28T03:39:11;-1.70;97.40
42085;DHT22;27746;52.228;20.890;2023-02-28T03:41:42;0.30;97.60
42085;DHT22;27746;52.228;20.890;2023-02-28T03:44:16;-1.70;97.00
42085;DHT22;27746;52.228;20.890;2023-02-28T03:46:48;-1.70;97.10
42085;DHT22;27746;52.228;20.890;2023-02-28T03:49:17;-1.70;97.20
42085;DHT22;27746;52.228;20.890;2023-02-28T03:51:47;-1.70;97.20
42085;DHT22;27746;52.228;20.890;2023-02-28T03:54:18;-1.70;97.10
42085;DHT22;27746;52.228;20.890;2023-02-28T03:56:50;-1.70;97.10
42085;DHT22;27746;52.228;20.890;2023-02-28T03:59:21;-1.70;97.60
42085;DHT22;27746;52.228;20.890;2023-02-28T04:01:50;-1.70;97.60
42085;DHT22;27746;52.228;20.890;2023-02-28T04:04:17;-1.70;97.90
42085;DHT22;27746;52.228;20.890;2023-02-28T04:06:49;-1.70;98.20
42085;DHT22;27746;52.228;20.890;2023-02-28T04:09:17;-1.70;98.30
42085;DHT22;27746;52.228;20.890;2023-02-28T04:11:45;-1.70;98.50
42085;DHT22;27746;52.228;20.890;2023-02-28T04:14:13;-1.70;98.70
42085;DHT22;27746;52.228;20.890;2023-02-28T04:16:41;-1.70;98.70
42085;DHT22;27746;52.228;20.890;2023-02-28T04:19:10;-1.70;98.80
42085;DHT22;27746;52.228;20.890;2023-02-28T04:21:38;-1.70;98.80
42085;DHT22;27746;52.228;20.890;2023-02-28T04:24:08;-1.80;98.80
42085;DHT22;27746;52.228;20.890;2023-02-28T04:26:40;-1.70;98.60
42085;DHT22;27746;52.228;20.890;2023-02-28T04:29:09;-1.80;98.60
42085;DHT22;27746;52.228;20.890;2023-02-28T04:31:36;-1.80;98.70
42085;DHT22;27746;52.228;20.890;2023-02-28T04:34:03;-1.80;98.80
42085;DHT22;27746;52.228;20.890;2023-02-28T04:36:30;-1.80;99.00
42085;DHT22;27746;52.228;20.890;2023-02-28T04:38:57;-1.80;99.10
42085;DHT22;27746;52.228;20.890;2023-02-28T04:41:26;-1.80;99.30
42085;DHT22;27746;52.228;20.890;2023-02-28T04:43:53;-1.80;99.40
42085;DHT22;27746;52.228;20.890;2023-02-28T04:46:21;-1.80;99.50
42085;DHT22;27746;52.228;20.890;2023-02-28T04:48:49;-1.90;99.50
42085;DHT22;27746;52.228;20.890;2023-02-28T04:51:18;-1.90;99.50
42085;DHT22;27746;52.228;20.890;2023-02-28T04:53:46;-1.90;99.60
42085;DHT22;27746;52.228;20.890;2023-02-28T04:56:15;-1.90;99.60
42085;DHT22;27746;52.228;20.890;2023-02-28T04:58:44;-2.00;99.60
42085;DHT22;27746;52.228;20.890;2023-02-28T05:01:21;-2.00;99.50
42085;DHT22;27746;52.228;20.890;2023-02-28T05:03:49;-2.00;99.40
42085;DHT22;27746;52.228;20.890;2023-02-28T05:06:16;-2.00;99.20
42085;DHT22;27746;52.228;20.890;2023-02-28T05:08:44;-2.00;99.20
42085;DHT22;27746;52.228;20.890;2023-02-28T05:11:15;-2.00;99.40
42085;DHT22;27746;52.228;20.890;2023-02-28T05:13:44;-2.00;99.60
42085;DHT22;27746;52.228;20.890;2023-02-28T05:16:11;-2.00;99.90
42085;DHT22;27746;52.228;20.890;2023-02-28T05:18:38;-2.00;99.90
42085;DHT22;27746;52.228;20.890;2023-02-28T05:21:06;-2.10;99.90
42085;DHT22;27746;52.228;20.890;2023-02-28T05:23:39;-2.10;99.90
42085;DHT22;27746;52.228;20.890;2023-02-28T05:26:08;-2.00;99.90
42085;DHT22;27746;52.228;20.890;2023-02-28T05:28:35;-2.10;99.90
42085;DHT22;27746;52.228;20.890;2023-02-28T05:31:04;-2.10;99.90
42085;DHT22;27746;52.228;20.890;2023-02-28T05:33:30;-2.10;99.90
42085;DHT22;27746;52.228;20.890;2023-02-28T05:35:58;-2.10;99.90
42085;DHT22;27746;52.228;20.890;2023-02-28T05:38:25;-2.10;99.90
42085;DHT22;27746;52.228;20.890;2023-02-28T05:40:52;-2.10;99.90
42085;DHT22;27746;52.228;20.890;2023-02-28T05:43:19;-2.10;99.90
42085;DHT22;27746;52.228;20.890;2023-02-28T05:45:46;-2.00;99.90
42085;DHT22;27746;52.228;20.890;2023-02-28T05:48:15;-2.00;99.90
42085;DHT22;27746;52.228;20.890;2023-02-28T05:50:42;-3.70;99.90
42085;DHT22;27746;52.228;20.890;2023-02-28T05:53:10;-1.90;99.90
42085;DHT22;27746;52.228;20.890;2023-02-28T05:55:37;-1.90;99.90
42085;DHT22;27746;52.228;20.890;2023-02-28T05:58:04;-1.80;99.90
42085;DHT22;27746;52.228;20.890;2023-02-28T06:00:31;-1.70;99.90
42085;DHT22;27746;52.228;20.890;2023-02-28T06:02:57;-1.90;99.90
42085;DHT22;27746;52.228;20.890;2023-02-28T06:05:28;-1.80;99.90
42085;DHT22;27746;52.228;20.890;2023-02-28T06:07:55;-1.70;99.90
42085;DHT22;27746;52.228;20.890;2023-02-28T06:10:22;-1.70;99.90
42085;DHT22;27746;52.228;20.890;2023-02-28T06:12:49;-1.60;99.90
42085;DHT22;27746;52.228;20.890;2023-02-28T06:15:16;-1.60;99.90
42085;DHT22;27746;52.228;20.890;2023-02-28T06:17:43;-1.50;99.90
42085;DHT22;27746;52.228;20.890;2023-02-28T06:20:11;-1.40;99.90
42085;DHT22;27746;52.228;20.890;2023-02-28T06:22:40;-1.30;99.90
42085;DHT22;27746;52.228;20.890;2023-02-28T06:25:09;-1.30;99.80
42085;DHT22;27746;52.228;20.890;2023-02-28T06:27:37;-1.20;99.40
42085;DHT22;27746;52.228;20.890;2023-02-28T06:30:05;-1.10;98.80
42085;DHT22;27746;52.228;20.890;2023-02-28T06:32:32;-0.90;98.20
42085;DHT22;27746;52.228;20.890;2023-02-28T06:34:59;-0.80;97.40
42085;DHT22;27746;52.228;20.890;2023-02-28T06:37:26;-0.70;96.90
42085;DHT22;27746;52.228;20.890;2023-02-28T06:39:54;-0.50;96.40
42085;DHT22;27746;52.228;20.890;2023-02-28T06:42:22;-0.40;96.00
42085;DHT22;27746;52.228;20.890;2023-02-28T06:44:50;-0.30;95.80
42085;DHT22;27746;52.228;20.890;2023-02-28T06:47:17;-0.30;94.90
42085;DHT22;27746;52.228;20.890;2023-02-28T06:49:44;-0.10;94.60
42085;DHT22;27746;52.228;20.890;2023-02-28T06:52:12;-0.10;94.20
42085;DHT22;27746;52.228;20.890;2023-02-28T06:54:39;0.00;94.10
42085;DHT22;27746;52.228;20.890;2023-02-28T06:57:19;0.10;93.90
42085;DHT22;27746;52.228;20.890;2023-02-28T06:59:46;-1.50;93.40
42085;DHT22;27746;52.228;20.890;2023-02-28T07:02:13;2.40;93.90
42085;DHT22;27746;52.228;20.890;2023-02-28T07:04:40;0.40;92.50
42085;DHT22;27746;52.228;20.890;2023-02-28T07:07:10;0.50;92.80
42085;DHT22;27746;52.228;20.890;2023-02-28T07:09:37;0.80;93.20
42085;DHT22;27746;52.228;20.890;2023-02-28T07:12:04;0.70;92.80
42085;DHT22;27746;52.228;20.890;2023-02-28T07:14:33;0.80;92.10
42085;DHT22;27746;52.228;20.890;2023-02-28T07:17:03;0.90;91.60
42085;DHT22;27746;52.228;20.890;2023-02-28T07:19:30;1.10;91.60
42085;DHT22;27746;52.228;20.890;2023-02-28T07:21:56;1.30;91.00
42085;DHT22;27746;52.228;20.890;2023-02-28T07:24:23;1.40;90.00
42085;DHT22;27746;52.228;20.890;2023-02-28T07:26:53;1.60;89.80
42085;DHT22;27746;52.228;20.890;2023-02-28T07:29:20;1.50;88.70
42085;DHT22;27746;52.228;20.890;2023-02-28T07:31:49;1.70;87.50
42085;DHT22;27746;52.228;20.890;2023-02-28T07:34:19;1.70;85.80
42085;DHT22;27746;52.228;20.890;2023-02-28T07:36:46;1.90;85.00
42085;DHT22;27746;52.228;20.890;2023-02-28T07:39:13;2.10;84.40
42085;DHT22;27746;52.228;20.890;2023-02-28T07:41:40;2.10;82.30
42085;DHT22;27746;52.228;20.890;2023-02-28T07:44:09;2.10;82.40
42085;DHT22;27746;52.228;20.890;2023-02-28T07:46:36;2.30;83.40
42085;DHT22;27746;52.228;20.890;2023-02-28T07:49:05;2.40;82.60
42085;DHT22;27746;52.228;20.890;2023-02-28T07:51:32;2.60;82.20
42085;DHT22;27746;52.228;20.890;2023-02-28T07:53:59;2.90;79.70
42085;DHT22;27746;52.228;20.890;2023-02-28T07:56:26;3.00;79.80
42085;DHT22;27746;52.228;20.890;2023-02-28T07:58:53;3.30;79.10
42085;DHT22;27746;52.228;20.890;2023-02-28T08:01:20;3.30;78.40
42085;DHT22;27746;52.228;20.890;2023-02-28T08:03:47;3.40;78.40
42085;DHT22;27746;52.228;20.890;2023-02-28T08:06:20;3.50;77.90
42085;DHT22;27746;52.228;20.890;2023-02-28T08:08:47;3.50;76.40
42085;DHT22;27746;52.228;20.890;2023-02-28T08:11:14;3.60;77.50
42085;DHT22;27746;52.228;20.890;2023-02-28T08:13:41;1.90;76.40
42085;DHT22;27746;52.228;20.890;2023-02-28T08:16:10;3.90;76.80
42085;DHT22;27746;52.228;20.890;2023-02-28T08:18:37;4.00;76.60
42085;DHT22;27746;52.228;20.890;2023-02-28T08:21:07;4.00;75.00
42085;DHT22;27746;52.228;20.890;2023-02-28T08:23:35;4.00;75.70
42085;DHT22;27746;52.228;20.890;2023-02-28T08:26:03;4.00;75.20
42085;DHT22;27746;52.228;20.890;2023-02-28T08:28:30;4.10;76.20
42085;DHT22;27746;52.228;20.890;2023-02-28T08:30:57;4.20;76.00
42085;DHT22;27746;52.228;20.890;2023-02-28T08:33:25;4.40;75.40
42085;DHT22;27746;52.228;20.890;2023-02-28T08:35:53;4.40;73.20
42085;DHT22;27746;52.228;20.890;2023-02-28T08:38:21;4.40;73.40
42085;DHT22;27746;52.228;20.890;2023-02-28T08:40:49;6.70;74.90
42085;DHT22;27746;52.228;20.890;2023-02-28T08:43:16;4.60;72.70
42085;DHT22;27746;52.228;20.890;2023-02-28T08:45:44;4.80;73.00
42085;DHT22;27746;52.228;20.890;2023-02-28T08:48:11;4.80;72.30
42085;DHT22;27746;52.228;20.890;2023-02-28T08:50:39;4.90;72.40
42085;DHT22;27746;52.228;20.890;2023-02-28T08:53:06;5.00;71.50
42085;DHT22;27746;52.228;20.890;2023-02-28T08:55:32;5.10;71.00
42085;DHT22;27746;52.228;20.890;2023-02-28T08:58:01;5.20;71.90
42085;DHT22;27746;52.228;20.890;2023-02-28T09:00:28;5.10;70.70
42085;DHT22;27746;52.228;20.890;2023-02-28T09:02:55;5.00;72.50
42085;DHT22;27746;52.228;20.890;2023-02-28T09:05:22;5.10;73.20
42085;DHT22;27746;52.228;20.890;2023-02-28T09:07:50;5.20;72.50
42085;DHT22;27746;52.228;20.890;2023-02-28T09:10:18;5.30;71.60
42085;DHT22;27746;52.228;20.890;2023-02-28T09:12:44;5.40;71.50
42085;DHT22;27746;52.228;20.890;2023-02-28T09:15:13;5.50;72.20
42085;DHT22;27746;52.228;20.890;2023-02-28T09:17:41;5.60;72.80
42085;DHT22;27746;52.228;20.890;2023-02-28T09:20:09;5.70;72.70
42085;DHT22;27746;52.228;20.890;2023-02-28T09:22:36;6.00;72.50
42085;DHT22;27746;52.228;20.890;2023-02-28T09:25:05;6.00;70.90
42085;DHT22;27746;52.228;20.890;2023-02-28T09:27:31;6.10;71.30
42085;DHT22;27746;52.228;20.890;2023-02-28T09:29:58;6.20;71.10
42085;DHT22;27746;52.228;20.890;2023-02-28T09:32:27;6.20;69.70
42085;DHT22;27746;52.228;20.890;2023-02-28T09:34:54;6.20;69.40
42085;DHT22;27746;52.228;20.890;2023-02-28T09:37:21;6.40;69.40
42085;DHT22;27746;52.228;20.890;2023-02-28T09:39:48;6.60;69.30
42085;DHT22;27746;52.228;20.890;2023-02-28T09:42:21;6.80;69.40
42085;DHT22;27746;52.228;20.890;2023-02-28T09:44:49;7.10;69.70
42085;DHT22;27746;52.228;20.890;2023-02-28T09:47:21;7.30;68.50
42085;DHT22;27746;52.228;20.890;2023-02-28T09:49:54;7.70;67.40
42085;DHT22;27746;52.228;20.890;2023-02-28T09:52:27;8.10;65.70
42085;DHT22;27746;52.228;20.890;2023-02-28T09:54:55;8.60;65.20
42085;DHT22;27746;52.228;20.890;2023-02-28T09:57:31;9.40;63.90
42085;DHT22;27746;52.228;20.890;2023-02-28T10:00:06;10.50;62.20
42085;DHT22;27746;52.228;20.890;2023-02-28T10:02:57;11.70;60.10
42085;DHT22;27746;52.228;20.890;2023-02-28T10:05:33;13.40;56.00
42085;DHT22;27746;52.228;20.890;2023-02-28T10:08:09;15.40;52.50
42085;DHT22;27746;52.228;20.890;2023-02-28T10:10:41;16.40;49.50
42085;DHT22;27746;52.228;20.890;2023-02-28T10:13:20;17.50;47.20
42085;DHT22;27746;52.228;20.890;2023-02-28T10:15:52;18.30;45.70
42085;DHT22;27746;52.228;20.890;2023-02-28T10:18:24;19.60;44.10
42085;DHT22;27746;52.228;20.890;2023-02-28T10:20:54;20.30;42.40
42085;DHT22;27746;52.228;20.890;2023-02-28T10:23:27;20.80;41.30
42085;DHT22;27746;52.228;20.890;2023-02-28T10:25:58;21.60;41.10
42085;DHT22;27746;52.228;20.890;2023-02-28T10:28:26;22.00;39.70
42085;DHT22;27746;52.228;20.890;2023-02-28T10:30:56;21.60;39.80
42085;DHT22;27746;52.228;20.890;2023-02-28T10:33:27;22.10;38.70
42085;DHT22;27746;52.228;20.890;2023-02-28T10:35:56;22.50;38.80
42085;DHT22;27746;52.228;20.890;2023-02-28T10:38:26;23.00;38.60
42085;DHT22;27746;52.228;20.890;2023-02-28T10:41:04;23.20;37.80
42085;DHT22;27746;52.228;20.890;2023-02-28T10:43:35;23.10;37.60
42085;DHT22;27746;52.228;20.890;2023-02-28T10:46:09;23.30;37.00
42085;DHT22;27746;52.228;20.890;2023-02-28T10:48:39;23.90;36.60
42085;DHT22;27746;52.228;20.890;2023-02-28T10:51:11;24.40;36.50
42085;DHT22;27746;52.228;20.890;2023-02-28T10:53:47;24.60;35.80
42085;DHT22;27746;52.228;20.890;2023-02-28T10:56:17;24.80;35.60
42085;DHT22;27746;52.228;20.890;2023-02-28T10:58:53;25.10;35.50
42085;DHT22;27746;52.228;20.890;2023-02-28T11:01:22;25.50;34.90
42085;DHT22;27746;52.228;20.890;2023-02-28T11:03:50;26.10;34.70
42085;DHT22;27746;52.228;20.890;2023-02-28T11:06:21;26.40;34.30
42085;DHT22;27746;52.228;20.890;2023-02-28T11:08:51;26.50;33.70
42085;DHT22;27746;52.228;20.890;2023-02-28T11:11:19;26.50;33.50
42085;DHT22;27746;52.228;20.890;2023-02-28T11:13:50;26.50;33.30
42085;DHT22;27746;52.228;20.890;2023-02-28T11:16:18;26.10;33.00
42085;DHT22;27746;52.228;20.890;2023-02-28T11:18:48;26.30;33.20
42085;DHT22;27746;52.228;20.890;2023-02-28T11:21:22;26.50;32.90
42085;DHT22;27746;52.228;20.890;2023-02-28T11:23:52;26.00;33.30
42085;DHT22;27746;52.228;20.890;2023-02-28T11:26:38;26.40;32.80
42085;DHT22;27746;52.228;20.890;2023-02-28T11:29:11;26.10;33.50
42085;DHT22;27746;52.228;20.890;2023-02-28T11:31:38;26.20;34.30
42085;DHT22;27746;52.228;20.890;2023-02-28T11:34:24;25.80;33.30
42085;DHT22;27746;52.228;20.890;2023-02-28T11:36:57;26.80;33.10
42085;DHT22;27746;52.228;20.890;2023-02-28T11:39:25;26.30;32.40
42085;DHT22;27746;52.228;20.890;2023-02-28T11:42:33;26.30;33.00
42085;DHT22;27746;52.228;20.890;2023-02-28T11:45:11;25.70;33.30
42085;DHT22;27746;52.228;20.890;2023-02-28T11:47:48;25.40;33.30
42085;DHT22;27746;52.228;20.890;2023-02-28T11:50:25;26.20;33.30
42085;DHT22;27746;52.228;20.890;2023-02-28T11:52:57;26.80;33.40
42085;DHT22;27746;52.228;20.890;2023-02-28T11:55:28;27.40;32.70
42085;DHT22;27746;52.228;20.890;2023-02-28T11:58:19;27.30;32.60
42085;DHT22;27746;52.228;20.890;2023-02-28T12:01:01;27.70;32.10
42085;DHT22;27746;52.228;20.890;2023-02-28T12:03:38;28.00;32.40
42085;DHT22;27746;52.228;20.890;2023-02-28T12:06:16;28.20;32.50
42085;DHT22;27746;52.228;20.890;2023-02-28T12:08:55;28.30;33.20
42085;DHT22;27746;52.228;20.890;2023-02-28T12:11:32;28.20;33.00
42085;DHT22;27746;52.228;20.890;2023-02-28T12:14:32;28.00;32.80
42085;DHT22;27746;52.228;20.890;2023-02-28T12:17:16;28.30;32.80
42085;DHT22;27746;52.228;20.890;2023-02-28T12:19:51;28.70;32.20
42085;DHT22;27746;52.228;20.890;2023-02-28T12:22:31;28.90;32.80
42085;DHT22;27746;52.228;20.890;2023-02-28T12:28:07;29.00;32.40
42085;DHT22;27746;52.228;20.890;2023-02-28T12:30:37;28.60;32.10
42085;DHT22;27746;52.228;20.890;2023-02-28T12:33:09;28.90;32.40
42085;DHT22;27746;52.228;20.890;2023-02-28T12:35:40;29.10;32.70
42085;DHT22;27746;52.228;20.890;2023-02-28T12:38:12;29.00;32.00
42085;DHT22;27746;52.228;20.890;2023-02-28T12:40:44;28.90;31.70
42085;DHT22;27746;52.228;20.890;2023-02-28T12:43:15;28.70;32.20
42085;DHT22;27746;52.228;20.890;2023-02-28T12:45:46;28.80;31.30
42085;DHT22;27746;52.228;20.890;2023-02-28T12:48:18;28.30;31.60
42085;DHT22;27746;52.228;20.890;2023-02-28T12:50:47;28.80;32.00
42085;DHT22;27746;52.228;20.890;2023-02-28T12:53:18;28.80;32.20
42085;DHT22;27746;52.228;20.890;2023-02-28T12:55:50;28.50;31.70
42085;DHT22;27746;52.228;20.890;2023-02-28T12:58:29;28.60;31.50
42085;DHT22;27746;52.228;20.890;2023-02-28T13:01:22;28.00;31.50
42085;DHT22;27746;52.228;20.890;2023-02-28T13:04:14;28.10;31.70
42085;DHT22;27746;52.228;20.890;2023-02-28T13:06:59;28.50;31.90
42085;DHT22;27746;52.228;20.890;2023-02-28T13:09:30;28.70;32.00
42085;DHT22;27746;52.228;20.890;2023-02-28T13:11:58;28.50;31.80
42085;DHT22;27746;52.228;20.890;2023-02-28T13:14:28;28.40;31.70
42085;DHT22;27746;52.228;20.890;2023-02-28T13:17:02;28.40;31.90
42085;DHT22;27746;52.228;20.890;2023-02-28T13:19:31;28.30;32.00
42085;DHT22;27746;52.228;20.890;2023-02-28T13:21:59;28.00;31.80
42085;DHT22;27746;52.228;20.890;2023-02-28T13:24:45;28.20;31.90
42085;DHT22;27746;52.228;20.890;2023-02-28T13:27:37;28.10;32.00
42085;DHT22;27746;52.228;20.890;2023-02-28T13:33:28;27.70;32.00
42085;DHT22;27746;52.228;20.890;2023-02-28T13:36:09;27.00;31.80
42085;DHT22;27746;52.228;20.890;2023-02-28T13:38:39;26.70;32.30
42085;DHT22;27746;52.228;20.890;2023-02-28T13:41:41;26.70;32.50
42085;DHT22;27746;52.228;20.890;2023-02-28T13:44:09;26.90;32.40
42085;DHT22;27746;52.228;20.890;2023-02-28T13:49:44;26.10;33.00
42085;DHT22;27746;52.228;20.890;2023-02-28T13:52:16;25.60;33.20
42085;DHT22;27746;52.228;20.890;2023-02-28T13:57:45;24.50;34.00
42085;DHT22;27746;52.228;20.890;2023-02-28T14:00:23;23.90;34.40
42085;DHT22;27746;52.228;20.890;2023-02-28T14:03:10;23.80;33.80
42085;DHT22;27746;52.228;20.890;2023-02-28T14:05:39;23.50;34.60
42085;DHT22;27746;52.228;20.890;2023-02-28T14:08:10;23.80;34.60
42085;DHT22;27746;52.228;20.890;2023-02-28T14:10:43;24.00;34.70
42085;DHT22;27746;52.228;20.890;2023-02-28T14:13:39;23.80;34.70
42085;DHT22;27746;52.228;20.890;2023-02-28T14:16:11;23.00;35.00
42085;DHT22;27746;52.228;20.890;2023-02-28T14:18:41;21.40;36.00
42085;DHT22;27746;52.228;20.890;2023-02-28T14:21:16;19.50;37.90
42085;DHT22;27746;52.228;20.890;2023-02-28T14:24:02;17.80;40.00
42085;DHT22;27746;52.228;20.890;2023-02-28T14:27:12;16.40;41.30
42085;DHT22;27746;52.228;20.890;2023-02-28T14:30:04;15.10;42.80
42085;DHT22;27746;52.228;20.890;2023-02-28T14:32:44;14.20;44.40
42085;DHT22;27746;52.228;20.890;2023-02-28T14:35:24;13.30;45.40
42085;DHT22;27746;52.228;20.890;2023-02-28T14:37:56;12.40;46.70
42085;DHT22;27746;52.228;20.890;2023-02-28T14:40:27;11.70;47.80
42085;DHT22;27746;52.228;20.890;2023-02-28T14:42:58;11.30;48.60
42085;DHT22;27746;52.228;20.890;2023-02-28T14:45:28;10.70;50.40
42085;DHT22;27746;52.228;20.890;2023-02-28T14:47:57;10.30;50.60
42085;DHT22;27746;52.228;20.890;2023-02-28T14:50:29;9.80;51.80
42085;DHT22;27746;52.228;20.890;2023-02-28T14:52:58;7.60;51.90
42085;DHT22;27746;52.228;20.890;2023-02-28T14:55:28;9.00;53.60
42085;DHT22;27746;52.228;20.890;2023-02-28T14:57:57;8.60;54.50
42085;DHT22;27746;52.228;20.890;2023-02-28T15:00:26;6.80;54.30
42085;DHT22;27746;52.228;20.890;2023-02-28T15:02:54;8.00;56.00
42085;DHT22;27746;52.228;20.890;2023-02-28T15:05:27;7.70;56.70
42085;DHT22;27746;52.228;20.890;2023-02-28T15:08:04;7.50;57.60
42085;DHT22;27746;52.228;20.890;2023-02-28T15:10:33;7.40;58.20
42085;DHT22;27746;52.228;20.890;2023-02-28T15:13:01;7.30;58.40
42085;DHT22;27746;52.228;20.890;2023-02-28T15:15:39;7.20;59.00
42085;DHT22;27746;52.228;20.890;2023-02-28T15:18:13;7.00;59.00
42085;DHT22;27746;52.228;20.890;2023-02-28T15:20:42;6.90;59.20
42085;DHT22;27746;52.228;20.890;2023-02-28T15:23:12;6.70;59.30
42085;DHT22;27746;52.228;20.890;2023-02-28T15:25:40;6.70;60.00
42085;DHT22;27746;52.228;20.890;2023-02-28T15:28:13;6.50;60.70
42085;DHT22;27746;52.228;20.890;2023-02-28T15:30:49;6.40;61.10
42085;DHT22;27746;52.228;20.890;2023-02-28T15:33:21;6.30;62.00
42085;DHT22;27746;52.228;20.890;2023-02-28T15:35:49;6.20;62.30
42085;DHT22;27746;52.228;20.890;2023-02-28T15:38:23;6.00;63.30
42085;DHT22;27746;52.228;20.890;2023-02-28T15:40:52;5.90;63.60
42085;DHT22;27746;52.228;20.890;2023-02-28T15:43:26;5.80;64.30
42085;DHT22;27746;52.228;20.890;2023-02-28T15:45:56;5.70;64.70
42085;DHT22;27746;52.228;20.890;2023-02-28T15:48:25;5.50;65.60
42085;DHT22;27746;52.228;20.890;2023-02-28T15:50:55;5.40;65.90
42085;DHT22;27746;52.228;20.890;2023-02-28T15:53:26;5.30;66.40
42085;DHT22;27746;52.228;20.890;2023-02-28T15:55:59;5.30;66.60
42085;DHT22;27746;52.228;20.890;2023-02-28T15:58:26;5.20;67.10
42085;DHT22;27746;52.228;20.890;2023-02-28T16:01:05;5.00;67.40
42085;DHT22;27746;52.228;20.890;2023-02-28T16:03:40;5.00;67.60